Time;durP1;ratioP1;P1;durP2;ratioP2;P2;SDS_P1;SDS_P2;PMS_P1;PMS_P2;Temp;Humidity;BMP_temperature;BMP_pressure;BME280_temperature;BME280_humidity;BME280_pressure;Samples;Min_cycle;Max_cycle;Signal;HPM_P1;HPM_P2
2022/05/09 00:02:00;;;;;;;;;0.00;0.00;17.00;99.90;;;;;;5032067;28;10110;-64
2022/05/09 00:04:31;;;;;;;;;0.00;0.00;17.00;99.90;;;;;;5045627;28;9912;-64
2022/05/09 00:07:06;;;;;;;;;1.75;0.50;17.10;99.90;;;;;;5038580;28;10124;-70
2022/05/09 00:09:37;;;;;;;;;2.00;2.00;17.10;99.90;;;;;;5034934;28;10093;-68
2022/05/09 00:12:10;;;;;;;;;1.25;1.25;17.10;99.90;;;;;;5046346;28;9924;-65
2022/05/09 00:14:42;;;;;;;;;3.00;0.00;17.00;99.90;;;;;;5034456;28;10163;-66
2022/05/09 00:17:13;;;;;;;;;0.25;0.25;16.90;99.90;;;;;;5036801;28;9967;-66
2022/05/09 00:19:45;;;;;;;;;1.75;1.75;16.80;99.90;;;;;;5038111;28;10043;-64
2022/05/09 00:22:19;;;;;;;;;0.50;0.50;16.80;99.90;;;;;;5037538;28;10131;-70
2022/05/09 00:24:50;;;;;;;;;0.50;0.50;16.70;99.90;;;;;;5025577;28;10139;-70
2022/05/09 00:27:21;;;;;;;;;0.00;0.00;16.70;99.90;;;;;;5032568;28;10281;-65
2022/05/09 00:29:54;;;;;;;;;1.00;1.00;16.80;99.90;;;;;;5034069;28;10307;-65
2022/05/09 00:32:28;;;;;;;;;2.00;1.75;16.70;99.90;;;;;;5034258;28;10220;-68
2022/05/09 00:35:03;;;;;;;;;1.25;1.25;16.80;99.90;;;;;;5042972;28;10159;-73
2022/05/09 00:37:40;;;;;;;;;1.75;1.00;16.80;99.90;;;;;;5019011;28;10266;-70
2022/05/09 00:40:17;;;;;;;;;2.00;2.00;16.80;99.90;;;;;;5023129;28;10395;-69
2022/05/09 00:42:53;;;;;;;;;1.00;1.00;16.80;99.90;;;;;;5033653;28;10261;-69
2022/05/09 00:45:26;;;;;;;;;1.00;1.00;16.70;99.90;;;;;;5034156;28;10031;-68
2022/05/09 00:47:57;;;;;;;;;1.00;1.00;16.70;99.90;;;;;;5019392;28;9978;-69
2022/05/09 00:50:33;;;;;;;;;1.00;1.00;16.60;99.90;;;;;;5057042;28;10370;-72
2022/05/09 00:53:08;;;;;;;;;2.00;2.00;16.60;99.90;;;;;;5056855;28;10519;-73
2022/05/09 00:55:48;;;;;;;;;2.00;2.00;16.60;99.90;;;;;;5034513;28;10694;-72
2022/05/09 00:58:25;;;;;;;;;6.25;6.25;16.60;99.90;;;;;;5054068;28;10866;-71
2022/05/09 01:01:01;;;;;;;;;10.75;10.75;16.40;99.90;;;;;;5056591;28;10809;-71
2022/05/09 01:04:10;;;;;;;;;4.75;4.75;16.30;99.90;;;;;;5041673;28;11281;-71
2022/05/09 01:06:43;;;;;;;;;2.25;2.25;16.30;99.90;;;;;;5040203;28;10755;-65
2022/05/09 01:09:16;;;;;;;;;5.00;2.50;16.40;99.90;;;;;;5051104;28;11044;-66
2022/05/09 01:11:49;;;;;;;;;1.75;1.00;16.40;99.90;;;;;;5051348;28;10921;-72
2022/05/09 01:14:24;;;;;;;;;1.00;1.00;16.30;99.90;;;;;;5040569;28;10643;-72
2022/05/09 01:17:03;;;;;;;;;0.75;0.75;16.20;99.90;;;;;;5055702;28;10673;-65
2022/05/09 01:19:39;;;;;;;;;0.75;0.75;16.10;99.90;;;;;;5052700;28;10397;-65
2022/05/09 01:22:30;;;;;;;;;1.00;1.00;16.20;99.90;;;;;;5059904;28;10340;-71
2022/05/09 01:25:05;;;;;;;;;3.75;1.00;16.10;99.90;;;;;;5023018;28;10532;-71
2022/05/09 01:27:40;;;;;;;;;0.75;0.75;16.00;99.90;;;;;;5038942;28;10638;-65
2022/05/09 01:30:54;;;;;;;;;1.50;0.00;15.90;99.90;;;;;;5054130;28;10547;-66
2022/05/09 01:33:43;;;;;;;;;1.00;1.00;16.00;99.90;;;;;;4978703;28;10597;-70
2022/05/09 01:36:22;;;;;;;;;1.00;1.00;16.00;99.90;;;;;;5055195;28;10930;-65
2022/05/09 01:39:05;;;;;;;;;0.00;0.00;15.90;99.90;;;;;;5030655;28;10545;-65
2022/05/09 01:41:43;;;;;;;;;1.00;1.00;15.80;99.90;;;;;;5044264;28;10419;-70
2022/05/09 01:44:15;;;;;;;;;1.00;1.00;15.90;99.90;;;;;;5025288;28;10579;-71
2022/05/09 01:49:40;;;;;;;;;0.75;0.75;15.80;99.90;;;;;;5026471;28;10686;-66
2022/05/09 01:52:14;;;;;;;;;0.00;0.00;15.80;99.90;;;;;;5056051;28;10591;-65
2022/05/09 01:54:45;;;;;;;;;1.75;0.25;15.80;99.90;;;;;;5039509;28;11202;-66
2022/05/09 01:57:18;;;;;;;;;0.75;0.75;15.80;99.90;;;;;;5052296;28;10513;-71
2022/05/09 01:59:50;;;;;;;;;0.00;0.00;15.70;99.90;;;;;;5051365;28;10699;-71
2022/05/09 02:02:23;;;;;;;;;0.25;0.00;15.60;99.90;;;;;;5038172;28;10841;-71
2022/05/09 02:04:54;;;;;;;;;1.00;1.00;15.60;99.90;;;;;;5021752;28;11156;-71
2022/05/09 02:07:29;;;;;;;;;0.75;0.75;15.60;99.90;;;;;;5041529;28;10858;-66
2022/05/09 02:10:00;;;;;;;;;0.00;0.00;15.60;99.90;;;;;;5056480;28;10674;-65
2022/05/09 02:12:35;;;;;;;;;0.00;0.00;15.60;99.90;;;;;;5019356;28;10657;-65
2022/05/09 02:15:08;;;;;;;;;3.00;1.00;15.60;99.90;;;;;;5037123;28;10576;-65
2022/05/09 02:17:41;;;;;;;;;1.75;0.25;15.50;99.90;;;;;;5041016;28;11142;-65
2022/05/09 02:20:12;;;;;;;;;0.25;0.25;15.40;99.90;;;;;;5057740;28;10575;-65
2022/05/09 02:22:44;;;;;;;;;1.00;1.00;15.40;99.90;;;;;;5040423;28;10704;-65
2022/05/09 02:25:31;;;;;;;;;2.00;0.00;15.30;99.90;;;;;;5038235;28;10734;-66
2022/05/09 02:28:06;;;;;;;;;1.00;1.00;15.20;99.90;;;;;;5057710;28;10742;-65
2022/05/09 02:30:40;;;;;;;;;1.75;0.00;15.30;99.90;;;;;;5055069;28;11766;-65
2022/05/09 02:33:11;;;;;;;;;0.50;0.25;15.30;99.90;;;;;;5053936;28;10829;-65
2022/05/09 02:35:49;;;;;;;;;1.00;1.00;15.10;99.90;;;;;;5052518;28;10929;-71
2022/05/09 02:38:21;;;;;;;;;4.50;2.00;15.20;99.90;;;;;;5056849;28;10956;-74
2022/05/09 02:40:56;;;;;;;;;2.50;1.00;15.20;99.90;;;;;;5053459;28;10749;-65
2022/05/09 02:43:27;;;;;;;;;0.00;0.00;15.10;99.90;;;;;;5039718;28;11055;-66
2022/05/09 02:46:03;;;;;;;;;1.00;1.00;15.00;99.90;;;;;;5039453;28;10851;-71
2022/05/09 02:48:36;;;;;;;;;0.00;0.00;15.00;99.90;;;;;;5057960;28;10990;-70
2022/05/09 02:51:09;;;;;;;;;2.00;2.00;15.00;99.90;;;;;;5050871;28;10875;-72
2022/05/09 02:53:40;;;;;;;;;0.00;0.00;14.90;99.90;;;;;;5042838;28;11419;-71
2022/05/09 02:56:12;;;;;;;;;1.00;1.00;14.90;99.90;;;;;;5022084;28;10784;-67
2022/05/09 02:58:44;;;;;;;;;2.25;2.25;14.90;99.90;;;;;;5047806;28;10912;-65
2022/05/09 03:01:15;;;;;;;;;0.00;0.00;14.90;99.90;;;;;;5040838;28;11041;-71
2022/05/09 03:06:36;;;;;;;;;2.00;0.50;14.80;99.90;;;;;;5060974;28;11040;-71
2022/05/09 03:09:08;;;;;;;;;2.00;2.00;14.80;99.90;;;;;;5058685;28;10934;-72
2022/05/09 03:11:41;;;;;;;;;1.00;1.00;14.70;99.90;;;;;;5038222;28;11119;-71
2022/05/09 03:14:12;;;;;;;;;1.00;1.00;14.70;99.90;;;;;;5055277;28;11149;-71
2022/05/09 03:16:46;;;;;;;;;1.25;1.25;14.80;99.90;;;;;;5038559;28;11223;-65
2022/05/09 03:19:18;;;;;;;;;1.00;1.00;14.70;99.90;;;;;;5017751;28;11224;-65
2022/05/09 03:21:53;;;;;;;;;0.75;0.75;14.70;99.90;;;;;;5055854;28;11200;-66
2022/05/09 03:24:24;;;;;;;;;1.00;1.00;14.60;99.90;;;;;;5022063;28;11151;-65
2022/05/09 03:26:59;;;;;;;;;1.00;1.00;14.60;99.90;;;;;;5053694;28;10920;-70
2022/05/09 03:29:32;;;;;;;;;2.50;2.50;14.60;99.90;;;;;;5040549;28;11392;-70
2022/05/09 03:32:02;;;;;;;;;2.00;2.00;14.60;99.90;;;;;;5039877;28;11407;-67
2022/05/09 03:34:34;;;;;;;;;2.25;2.25;14.50;99.90;;;;;;5031317;28;11423;-65
2022/05/09 03:37:08;;;;;;;;;0.25;0.25;14.50;99.90;;;;;;5055710;28;11574;-71
2022/05/09 03:39:40;;;;;;;;;1.00;1.00;14.50;99.90;;;;;;5053841;28;11196;-71
2022/05/09 03:42:11;;;;;;;;;0.00;0.00;14.50;99.90;;;;;;5059921;28;11455;-72
2022/05/09 03:44:42;;;;;;;;;2.00;0.00;14.50;99.90;;;;;;5024403;28;11430;-72
2022/05/09 03:47:14;;;;;;;;;1.25;1.25;14.40;99.90;;;;;;5057838;28;11413;-66
2022/05/09 03:49:44;;;;;;;;;1.00;1.00;14.40;99.90;;;;;;5045266;28;11449;-64
2022/05/09 03:52:15;;;;;;;;;0.00;0.00;14.20;99.90;;;;;;5041057;28;11416;-65
2022/05/09 03:54:47;;;;;;;;;2.00;2.00;14.20;99.90;;;;;;5038553;28;11200;-65
2022/05/09 03:57:19;;;;;;;;;1.00;1.00;14.20;99.90;;;;;;5049312;28;11409;-71
2022/05/09 03:59:50;;;;;;;;;1.00;1.00;14.30;99.90;;;;;;5023300;28;11270;-68
2022/05/09 04:02:21;;;;;;;;;1.00;1.00;14.20;99.90;;;;;;5060265;28;11425;-70
2022/05/09 04:04:52;;;;;;;;;1.00;1.00;14.20;99.90;;;;;;5040972;28;11201;-70
2022/05/09 04:07:23;;;;;;;;;1.75;1.25;14.20;99.90;;;;;;5051629;28;11086;-70
2022/05/09 04:09:58;;;;;;;;;2.50;1.75;14.20;99.90;;;;;;5058234;28;11406;-70
2022/05/09 04:12:29;;;;;;;;;4.00;2.50;14.20;99.90;;;;;;5055702;28;11452;-67
2022/05/09 04:17:52;;;;;;;;;1.75;1.75;14.10;99.90;;;;;;5051565;28;11423;-64
2022/05/09 04:20:24;;;;;;;;;1.00;1.00;14.10;99.90;;;;;;5057790;28;11418;-67
2022/05/09 04:22:56;;;;;;;;;1.75;0.75;14.00;99.90;;;;;;5052864;28;12208;-73
2022/05/09 04:25:31;;;;;;;;;2.50;2.50;14.00;99.90;;;;;;5054046;28;11376;-65
2022/05/09 04:28:08;;;;;;;;;1.25;1.25;14.00;99.90;;;;;;5018865;28;11423;-65
2022/05/09 04:30:39;;;;;;;;;1.50;1.50;14.00;99.90;;;;;;5037945;28;11437;-72
2022/05/09 04:33:12;;;;;;;;;5.00;3.00;14.00;99.90;;;;;;5037995;28;11431;-71
2022/05/09 04:35:49;;;;;;;;;1.00;1.00;13.90;99.90;;;;;;5034804;28;11449;-65
2022/05/09 04:38:23;;;;;;;;;3.00;2.00;13.90;99.90;;;;;;5042979;28;11400;-65
2022/05/09 04:40:58;;;;;;;;;1.75;1.50;13.90;99.90;;;;;;5048849;28;11415;-72
2022/05/09 04:43:30;;;;;;;;;2.50;2.50;13.90;99.90;;;;;;5043377;28;11417;-71
2022/05/09 04:46:03;;;;;;;;;1.00;1.00;13.80;99.90;;;;;;5037179;28;11456;-71
2022/05/09 04:48:34;;;;;;;;;1.50;1.50;13.90;99.90;;;;;;5034110;28;11469;-71
2022/05/09 04:51:05;;;;;;;;;0.75;0.75;14.00;99.90;;;;;;5037886;28;11449;-72
2022/05/09 04:53:37;;;;;;;;;1.00;1.00;14.00;99.90;;;;;;5034668;28;11450;-70
2022/05/09 04:56:09;;;;;;;;;1.00;1.00;13.90;99.90;;;;;;5024917;28;11478;-71
2022/05/09 04:58:40;;;;;;;;;0.50;0.50;13.90;99.90;;;;;;5033158;28;11426;-71
2022/05/09 05:01:11;;;;;;;;;2.00;2.00;13.90;99.90;;;;;;5045369;28;12186;-66
2022/05/09 05:03:43;;;;;;;;;1.50;1.50;13.90;99.90;;;;;;5033470;28;11443;-65
2022/05/09 05:06:14;;;;;;;;;4.50;2.50;13.90;99.90;;;;;;5028806;28;11456;-65
2022/05/09 05:08:45;;;;;;;;;1.50;1.50;13.90;99.90;;;;;;5037859;28;11491;-65
2022/05/09 05:11:18;;;;;;;;;1.00;1.00;13.80;99.90;;;;;;5033115;28;11459;-66
2022/05/09 05:13:49;;;;;;;;;0.25;0.25;13.80;99.90;;;;;;5034602;28;11442;-65
2022/05/09 05:16:59;;;;;;;;;2.00;2.00;13.80;99.90;;;;;;5008890;28;11427;-72
2022/05/09 05:19:13;;;;;;;;;0.00;0.00;13.70;99.90;;;;;;5036778;28;11452;-71
2022/05/09 05:21:46;;;;;;;;;1.00;1.00;13.80;99.90;;;;;;5026165;28;11470;-65
2022/05/09 05:24:20;;;;;;;;;1.00;1.00;13.80;99.90;;;;;;5013313;28;11490;-66
2022/05/09 05:26:56;;;;;;;;;0.00;0.00;13.70;99.90;;;;;;5042622;28;11466;-64
2022/05/09 05:29:28;;;;;;;;;1.00;1.00;13.70;99.90;;;;;;5034103;28;12170;-66
2022/05/09 05:32:00;;;;;;;;;1.00;0.50;13.60;99.90;;;;;;5045089;28;11459;-65
2022/05/09 05:34:31;;;;;;;;;2.50;2.50;13.60;99.90;;;;;;5033678;28;11437;-65
2022/05/09 05:37:09;;;;;;;;;0.75;0.75;13.60;99.90;;;;;;5032188;28;11503;-71
2022/05/09 05:39:41;;;;;;;;;2.00;2.00;13.60;99.90;;;;;;5037946;28;11446;-73
2022/05/09 05:42:16;;;;;;;;;0.00;0.00;13.50;99.90;;;;;;5031082;28;11434;-72
2022/05/09 05:44:49;;;;;;;;;2.50;1.00;13.60;99.90;;;;;;5035781;28;11485;-73
2022/05/09 05:47:22;;;;;;;;;1.00;1.00;13.50;99.90;;;;;;5041093;28;11467;-67
2022/05/09 05:49:54;;;;;;;;;1.00;0.50;13.50;99.90;;;;;;5055067;28;11482;-65
2022/05/09 05:52:31;;;;;;;;;1.00;1.00;13.50;99.90;;;;;;5055115;28;12274;-66
2022/05/09 05:55:02;;;;;;;;;0.00;0.00;13.50;99.90;;;;;;5045995;28;11426;-67
2022/05/09 05:57:38;;;;;;;;;1.00;1.00;13.50;99.90;;;;;;5059298;28;11086;-71
2022/05/09 06:00:20;;;;;;;;;1.00;1.00;13.40;99.90;;;;;;5042610;28;11444;-71
2022/05/09 06:02:51;;;;;;;;;2.00;0.00;13.50;99.90;;;;;;5046571;28;11400;-72
2022/05/09 06:05:23;;;;;;;;;2.00;2.00;13.40;99.90;;;;;;5058835;28;12184;-72
2022/05/09 06:07:58;;;;;;;;;0.00;0.00;13.40;99.90;;;;;;5057932;28;11433;-71
2022/05/09 06:10:30;;;;;;;;;1.00;1.00;13.40;99.90;;;;;;5040982;28;12147;-72
2022/05/09 06:13:05;;;;;;;;;3.25;1.50;13.40;99.90;;;;;;5041436;28;11398;-71
2022/05/09 06:15:36;;;;;;;;;1.00;1.00;13.40;99.90;;;;;;5052480;28;11398;-65
2022/05/09 06:18:15;;;;;;;;;1.00;1.00;13.30;99.90;;;;;;5027532;28;11426;-66
2022/05/09 06:20:51;;;;;;;;;1.25;1.25;13.30;99.90;;;;;;5040448;28;11436;-66
2022/05/09 06:23:22;;;;;;;;;1.00;1.00;13.30;99.90;;;;;;5058245;28;11430;-66
2022/05/09 06:25:54;;;;;;;;;1.75;1.75;13.30;99.90;;;;;;5055421;28;11424;-72
2022/05/09 06:28:25;;;;;;;;;2.25;1.00;13.30;99.90;;;;;;5060495;28;11440;-71
2022/05/09 06:30:59;;;;;;;;;1.00;1.00;13.30;99.90;;;;;;5034653;28;11431;-66
2022/05/09 06:33:30;;;;;;;;;1.50;0.75;13.30;99.90;;;;;;5060874;28;11436;-65
2022/05/09 06:36:01;;;;;;;;;1.00;1.00;13.30;99.90;;;;;;5036228;28;12186;-71
2022/05/09 06:38:34;;;;;;;;;1.00;1.00;13.30;99.90;;;;;;5059896;28;11418;-71
2022/05/09 06:41:07;;;;;;;;;1.00;1.00;13.20;99.90;;;;;;5053786;28;11400;-71
2022/05/09 06:43:43;;;;;;;;;1.00;1.00;13.30;99.90;;;;;;5061412;28;11438;-70
2022/05/09 06:46:16;;;;;;;;;1.00;1.00;13.30;99.90;;;;;;5066806;28;12149;-71
2022/05/09 06:48:47;;;;;;;;;1.00;1.00;13.30;99.90;;;;;;5047074;28;11467;-71
2022/05/09 06:51:19;;;;;;;;;0.75;0.75;13.20;99.90;;;;;;5054380;28;11425;-65
2022/05/09 06:53:53;;;;;;;;;1.00;1.00;13.20;99.90;;;;;;5059007;28;11413;-65
2022/05/09 06:56:29;;;;;;;;;0.25;0.25;13.20;99.90;;;;;;5013250;28;12154;-66
2022/05/09 06:59:00;;;;;;;;;0.00;0.00;13.20;99.90;;;;;;5059019;28;11399;-66
2022/05/09 07:01:33;;;;;;;;;2.00;2.00;13.20;99.90;;;;;;5054878;28;11414;-65
2022/05/09 07:04:05;;;;;;;;;4.00;2.25;13.20;99.90;;;;;;5063839;28;11403;-65
2022/05/09 07:06:36;;;;;;;;;1.00;1.00;13.20;99.90;;;;;;5056023;28;11464;-71
2022/05/09 07:09:12;;;;;;;;;2.00;2.00;13.20;99.90;;;;;;5037515;28;11418;-70
2022/05/09 07:11:43;;;;;;;;;1.25;1.00;13.10;99.90;;;;;;5057109;28;11453;-71
2022/05/09 07:14:14;;;;;;;;;2.75;2.75;13.10;99.90;;;;;;5039414;28;11426;-70
2022/05/09 07:16:45;;;;;;;;;1.00;1.00;13.10;99.90;;;;;;5058259;28;11464;-71
2022/05/09 07:19:16;;;;;;;;;2.00;2.00;13.10;99.90;;;;;;5049642;28;11417;-70
2022/05/09 07:21:48;;;;;;;;;0.00;0.00;13.10;99.90;;;;;;5040410;28;11394;-70
2022/05/09 07:24:18;;;;;;;;;1.50;1.50;13.10;99.90;;;;;;5057670;28;11450;-71
2022/05/09 07:26:49;;;;;;;;;1.00;1.00;13.10;99.90;;;;;;5052669;28;11533;-65
2022/05/09 07:29:21;;;;;;;;;1.00;0.25;13.10;99.90;;;;;;5017795;28;11461;-66
2022/05/09 07:31:52;;;;;;;;;2.25;1.00;13.10;99.90;;;;;;5035851;28;11438;-71
2022/05/09 07:34:22;;;;;;;;;5.25;2.50;13.00;99.90;;;;;;5056888;28;11456;-71
2022/05/09 07:36:52;;;;;;;;;1.00;1.00;13.00;99.90;;;;;;5054064;28;12206;-65
2022/05/09 07:39:23;;;;;;;;;1.25;1.25;13.00;99.90;;;;;;5032708;28;11417;-66
2022/05/09 07:42:00;;;;;;;;;1.50;1.50;13.00;99.90;;;;;;5038543;28;11417;-64
2022/05/09 07:44:33;;;;;;;;;1.50;1.00;13.00;99.90;;;;;;5059135;28;12199;-65
2022/05/09 07:47:05;;;;;;;;;1.75;1.00;13.00;99.90;;;;;;5055187;28;11395;-65
2022/05/09 07:49:35;;;;;;;;;2.00;2.00;13.00;99.90;;;;;;5048258;28;11465;-65
2022/05/09 07:52:08;;;;;;;;;2.75;1.00;13.00;99.90;;;;;;5032412;28;11452;-65
2022/05/09 07:54:40;;;;;;;;;2.25;1.75;13.00;99.90;;;;;;5028597;28;11489;-65
2022/05/09 07:57:15;;;;;;;;;1.50;1.50;13.00;99.90;;;;;;5031690;28;12037;-64
2022/05/09 07:59:45;;;;;;;;;0.00;0.00;13.00;99.90;;;;;;5032894;28;11445;-64
2022/05/09 08:02:16;;;;;;;;;1.75;1.75;13.00;99.90;;;;;;5037862;28;12686;-71
2022/05/09 08:04:47;;;;;;;;;1.50;1.50;13.00;99.90;;;;;;5031194;28;11479;-70
2022/05/09 08:07:18;;;;;;;;;3.00;1.00;13.00;99.90;;;;;;5035202;28;12640;-65
2022/05/09 08:09:51;;;;;;;;;1.00;1.00;13.00;99.90;;;;;;5033268;28;11471;-65
2022/05/09 08:12:21;;;;;;;;;2.00;2.00;13.00;99.90;;;;;;5029208;28;12208;-65
2022/05/09 08:14:52;;;;;;;;;0.25;0.25;12.90;99.90;;;;;;5031722;28;11486;-65
2022/05/09 08:17:26;;;;;;;;;2.75;1.00;12.90;99.90;;;;;;5037650;28;11460;-64
2022/05/09 08:19:59;;;;;;;;;1.00;1.00;12.90;99.90;;;;;;5038347;28;11462;-65
2022/05/09 08:22:31;;;;;;;;;1.00;1.00;12.90;99.90;;;;;;5030511;28;11466;-65
2022/05/09 08:25:04;;;;;;;;;1.75;1.75;13.00;99.90;;;;;;5033238;28;12669;-65
2022/05/09 08:27:37;;;;;;;;;1.00;1.00;12.90;99.90;;;;;;5034017;28;11482;-71
2022/05/09 08:30:10;;;;;;;;;0.00;0.00;12.90;99.90;;;;;;5036663;28;11451;-70
2022/05/09 08:32:44;;;;;;;;;1.00;1.00;12.90;99.90;;;;;;5029521;28;11446;-66
2022/05/09 08:35:16;;;;;;;;;1.00;1.00;13.00;99.90;;;;;;5037509;28;11477;-69
2022/05/09 08:37:51;;;;;;;;;1.00;1.00;12.90;99.90;;;;;;5034870;28;11493;-65
2022/05/09 08:40:35;;;;;;;;;1.00;1.00;12.90;99.90;;;;;;5036234;28;11496;-65
2022/05/09 08:43:23;;;;;;;;;1.25;1.25;12.90;99.90;;;;;;5042078;28;12255;-64
2022/05/09 08:46:29;;;;;;;;;1.00;1.00;12.90;99.90;;;;;;5036688;28;11474;-65
2022/05/09 08:49:28;;;;;;;;;2.00;2.00;12.90;99.90;;;;;;5032823;28;11484;-65
2022/05/09 08:52:49;;;;;;;;;1.75;1.00;12.90;99.90;;;;;;4980805;28;11822;-65
2022/05/09 08:55:36;;;;;;;;;1.50;1.50;12.90;99.90;;;;;;4930564;28;11554;-66
2022/05/09 08:58:31;;;;;;;;;0.00;0.00;12.90;99.90;;;;;;5013636;28;11463;-65
2022/05/09 09:01:03;;;;;;;;;2.00;0.00;12.80;99.90;;;;;;5015914;28;11607;-71
2022/05/09 09:03:39;;;;;;;;;1.00;1.00;12.90;99.90;;;;;;5006536;28;12020;-70
2022/05/09 09:06:31;;;;;;;;;0.50;0.50;12.90;99.90;;;;;;5015498;28;12280;-70
2022/05/09 09:09:18;;;;;;;;;0.00;0.00;12.80;99.90;;;;;;5017208;28;11474;-71
2022/05/09 09:12:07;;;;;;;;;2.00;2.00;12.80;99.90;;;;;;5015480;28;12263;-66
2022/05/09 09:15:03;;;;;;;;;1.50;1.50;12.80;99.90;;;;;;5013134;28;11477;-66
2022/05/09 09:17:59;;;;;;;;;1.25;1.25;12.90;99.90;;;;;;5024943;28;11513;-71
2022/05/09 09:20:39;;;;;;;;;2.00;2.00;12.90;99.90;;;;;;5014573;28;11453;-71
2022/05/09 09:23:34;;;;;;;;;0.75;0.75;12.80;99.90;;;;;;5014043;28;11513;-71
2022/05/09 09:26:20;;;;;;;;;1.75;1.75;12.80;99.90;;;;;;5031529;28;11469;-70
2022/05/09 09:29:07;;;;;;;;;3.00;1.25;12.80;99.90;;;;;;5011834;28;12201;-71
2022/05/09 09:31:44;;;;;;;;;1.75;1.75;12.80;99.90;;;;;;5028979;28;11525;-71
2022/05/09 09:34:29;;;;;;;;;1.00;1.00;12.80;99.90;;;;;;5007879;28;11495;-71
2022/05/09 09:37:11;;;;;;;;;0.00;0.00;12.80;99.90;;;;;;5009110;28;11477;-66
2022/05/09 09:39:42;;;;;;;;;2.00;2.00;12.80;99.90;;;;;;5012647;28;11462;-65
2022/05/09 09:42:14;;;;;;;;;1.75;1.00;12.80;99.90;;;;;;4998254;28;11476;-71
2022/05/09 09:44:48;;;;;;;;;1.75;1.75;12.70;99.90;;;;;;4997245;28;11456;-69
2022/05/09 09:47:28;;;;;;;;;3.50;1.00;12.70;99.90;;;;;;5010524;28;11484;-65
2022/05/09 09:50:29;;;;;;;;;1.50;1.50;12.80;99.90;;;;;;5034943;28;11442;-69
2022/05/09 09:53:01;;;;;;;;;1.50;0.25;12.70;99.90;;;;;;5056665;28;12244;-70
2022/05/09 09:55:40;;;;;;;;;1.00;1.00;12.80;99.90;;;;;;5031461;28;11475;-65
2022/05/09 09:58:29;;;;;;;;;1.50;1.00;12.70;99.90;;;;;;5033805;28;11479;-65
2022/05/09 10:01:10;;;;;;;;;1.00;1.00;12.70;99.90;;;;;;5030695;28;11570;-65
2022/05/09 10:03:44;;;;;;;;;3.50;2.00;12.70;99.90;;;;;;5028783;28;11528;-65
2022/05/09 10:06:22;;;;;;;;;1.75;1.75;12.70;99.90;;;;;;5029804;28;11457;-71
2022/05/09 10:09:03;;;;;;;;;3.75;2.00;12.70;99.90;;;;;;5025703;28;11444;-72
2022/05/09 10:11:34;;;;;;;;;1.25;1.25;12.60;99.90;;;;;;5028357;28;11521;-65
2022/05/09 10:14:06;;;;;;;;;2.00;1.00;12.60;99.90;;;;;;5030353;28;11486;-65
2022/05/09 10:16:48;;;;;;;;;2.00;2.00;12.70;99.90;;;;;;5042888;28;11456;-65
2022/05/09 10:19:33;;;;;;;;;4.00;2.25;12.70;99.90;;;;;;5026726;28;11517;-66
2022/05/09 10:25:16;;;;;;;;;2.75;1.00;12.60;99.90;;;;;;5033370;28;11464;-65
2022/05/09 10:28:00;;;;;;;;;1.50;0.25;12.60;99.90;;;;;;5038325;28;11454;-65
2022/05/09 10:30:54;;;;;;;;;1.00;1.00;12.60;99.90;;;;;;5033808;28;11463;-71
2022/05/09 10:33:34;;;;;;;;;2.50;1.00;12.60;99.90;;;;;;5029313;28;11463;-71
2022/05/09 10:36:44;;;;;;;;;0.75;0.75;12.60;99.90;;;;;;5040181;28;11535;-66
2022/05/09 10:39:28;;;;;;;;;2.00;1.00;12.60;99.90;;;;;;5033125;28;11456;-66
2022/05/09 10:42:03;;;;;;;;;1.00;1.00;12.60;99.90;;;;;;5027498;28;11427;-72
2022/05/09 10:44:59;;;;;;;;;1.25;1.25;12.60;99.90;;;;;;5035386;28;11450;-71
2022/05/09 10:47:53;;;;;;;;;1.00;1.00;12.60;99.90;;;;;;5036233;28;11430;-65
2022/05/09 10:50:41;;;;;;;;;1.50;1.00;12.70;99.90;;;;;;5032522;28;11454;-66
2022/05/09 10:53:31;;;;;;;;;2.00;1.00;12.60;99.90;;;;;;5041354;28;12272;-66
2022/05/09 10:56:20;;;;;;;;;2.25;2.25;12.60;99.90;;;;;;5051456;28;11564;-65
2022/05/09 10:58:56;;;;;;;;;2.00;2.00;12.60;99.90;;;;;;5029997;28;11595;-65
2022/05/09 11:01:47;;;;;;;;;2.00;2.00;12.60;99.90;;;;;;5034587;28;11459;-65
2022/05/09 11:04:19;;;;;;;;;2.00;2.00;12.60;99.90;;;;;;5038395;28;12370;-65
2022/05/09 11:07:12;;;;;;;;;3.25;2.50;12.60;99.90;;;;;;5034194;28;11506;-64
2022/05/09 11:09:45;;;;;;;;;2.75;1.00;12.60;99.90;;;;;;5032151;28;11518;-65
2022/05/09 11:12:34;;;;;;;;;2.50;1.50;12.60;99.90;;;;;;5040778;28;12295;-70
2022/05/09 11:15:31;;;;;;;;;1.00;1.00;12.70;99.90;;;;;;5036854;28;11478;-71
2022/05/09 11:18:21;;;;;;;;;1.00;1.00;12.70;99.90;;;;;;5055265;28;11470;-70
2022/05/09 11:21:38;;;;;;;;;2.25;1.00;12.70;99.90;;;;;;5052091;28;11478;-71
2022/05/09 11:24:45;;;;;;;;;1.00;1.00;12.70;99.90;;;;;;5029212;28;11440;-70
2022/05/09 11:27:41;;;;;;;;;3.25;2.00;12.70;99.90;;;;;;5038459;28;11479;-70
2022/05/09 11:30:36;;;;;;;;;4.25;1.25;12.60;99.90;;;;;;5039555;28;11510;-71
2022/05/09 11:33:48;;;;;;;;;0.75;0.25;12.60;99.90;;;;;;5031212;28;12210;-65
2022/05/09 11:36:27;;;;;;;;;2.00;2.00;12.70;99.90;;;;;;5013549;28;11474;-65
2022/05/09 11:39:02;;;;;;;;;1.00;1.00;12.60;99.90;;;;;;5035086;28;11465;-64
2022/05/09 11:41:47;;;;;;;;;1.00;1.00;12.60;99.90;;;;;;5034138;28;11481;-65
2022/05/09 11:44:23;;;;;;;;;1.50;1.50;12.60;99.90;;;;;;5027178;28;11421;-65
2022/05/09 11:47:16;;;;;;;;;2.25;2.00;12.60;99.90;;;;;;5023289;28;11546;-71
2022/05/09 11:50:35;;;;;;;;;1.00;1.00;12.60;99.90;;;;;;5047310;28;11456;-72
2022/05/09 11:53:08;;;;;;;;;1.00;1.00;12.50;99.90;;;;;;5048367;28;11421;-66
2022/05/09 11:55:41;;;;;;;;;2.00;2.00;12.60;99.90;;;;;;5036734;28;11408;-64
2022/05/09 11:58:12;;;;;;;;;0.00;0.00;12.60;99.90;;;;;;5043021;28;12170;-64
2022/05/09 12:00:47;;;;;;;;;3.25;2.00;12.50;99.90;;;;;;5059887;28;11455;-64
2022/05/09 12:03:43;;;;;;;;;1.50;1.50;12.50;99.90;;;;;;5056924;28;13618;-66
2022/05/09 12:06:39;;;;;;;;;2.75;1.00;12.50;99.90;;;;;;5028035;28;11441;-65
2022/05/09 12:09:13;;;;;;;;;1.50;1.00;12.50;99.90;;;;;;5048522;28;11388;-66
2022/05/09 12:11:46;;;;;;;;;1.00;1.00;12.50;99.90;;;;;;5031694;28;11440;-66
2022/05/09 12:14:44;;;;;;;;;1.00;1.00;12.50;99.90;;;;;;5021367;28;11666;-66
2022/05/09 12:17:21;;;;;;;;;1.75;1.75;12.50;99.90;;;;;;5022900;28;11490;-72
2022/05/09 12:19:52;;;;;;;;;0.75;0.75;12.50;99.90;;;;;;5053751;28;11443;-72
2022/05/09 12:22:39;;;;;;;;;3.00;2.00;12.50;99.90;;;;;;5052152;28;12168;-71
2022/05/09 12:25:30;;;;;;;;;1.75;1.75;12.40;99.90;;;;;;5040393;28;11414;-71
2022/05/09 12:28:19;;;;;;;;;4.00;1.00;12.40;99.90;;;;;;5054264;28;11391;-71
2022/05/09 12:30:59;;;;;;;;;0.25;0.25;12.40;99.90;;;;;;5052028;28;11418;-65
2022/05/09 12:33:40;;;;;;;;;2.00;0.25;12.40;99.90;;;;;;5054266;28;12225;-65
2022/05/09 12:36:18;;;;;;;;;1.25;1.00;12.40;99.90;;;;;;5036136;28;11405;-70
2022/05/09 12:38:55;;;;;;;;;1.00;1.00;12.40;99.90;;;;;;5056097;28;11488;-70
2022/05/09 12:41:32;;;;;;;;;2.00;2.00;12.40;99.90;;;;;;5052613;28;11495;-71
2022/05/09 12:44:07;;;;;;;;;0.00;0.00;12.30;99.90;;;;;;5058194;28;11510;-71
2022/05/09 12:46:46;;;;;;;;;1.75;1.75;12.40;99.90;;;;;;5055838;28;11417;-70
2022/05/09 12:49:26;;;;;;;;;0.00;0.00;12.40;99.90;;;;;;5051906;28;11414;-71
2022/05/09 12:51:58;;;;;;;;;2.50;1.00;12.40;99.90;;;;;;5033203;28;11579;-66
2022/05/09 12:54:30;;;;;;;;;1.00;1.00;12.40;99.90;;;;;;5033557;28;11465;-65
2022/05/09 12:57:04;;;;;;;;;0.00;0.00;12.40;99.90;;;;;;5052811;28;11497;-66
2022/05/09 12:59:54;;;;;;;;;2.50;1.00;12.40;99.90;;;;;;5057631;28;11431;-65
2022/05/09 13:02:46;;;;;;;;;4.00;1.00;12.40;99.90;;;;;;5051321;28;11447;-70
2022/05/09 13:05:38;;;;;;;;;1.00;1.00;12.30;99.90;;;;;;5055020;28;11509;-70
2022/05/09 13:08:13;;;;;;;;;0.00;0.00;12.30;99.90;;;;;;5051936;28;11474;-71
2022/05/09 13:10:58;;;;;;;;;1.50;1.50;12.30;99.90;;;;;;5051033;28;11527;-65
2022/05/09 13:13:37;;;;;;;;;2.00;2.00;12.30;99.90;;;;;;5046348;28;11397;-65
2022/05/09 13:16:09;;;;;;;;;1.00;0.25;12.30;99.90;;;;;;5056589;28;11413;-69
2022/05/09 13:18:40;;;;;;;;;3.00;3.00;12.30;99.90;;;;;;5053270;28;11512;-70
2022/05/09 13:21:11;;;;;;;;;1.00;1.00;12.30;99.90;;;;;;5036842;28;11491;-64
2022/05/09 13:23:48;;;;;;;;;1.25;1.00;12.30;99.90;;;;;;5058651;28;11509;-65
2022/05/09 13:26:28;;;;;;;;;1.00;1.00;12.30;99.90;;;;;;5015598;28;11483;-69
2022/05/09 13:29:09;;;;;;;;;2.00;1.00;12.30;99.90;;;;;;5055732;28;11489;-70
2022/05/09 13:31:43;;;;;;;;;0.75;0.75;12.30;99.90;;;;;;5034004;28;11515;-65
2022/05/09 13:34:31;;;;;;;;;1.00;1.00;12.30;99.90;;;;;;5048367;28;11509;-65
2022/05/09 13:37:04;;;;;;;;;0.00;0.00;12.30;99.90;;;;;;5047936;28;11610;-70
2022/05/09 13:39:44;;;;;;;;;2.50;2.50;12.30;99.90;;;;;;5033230;28;11497;-71
2022/05/09 13:42:33;;;;;;;;;0.00;0.00;12.30;99.90;;;;;;5045924;28;11500;-65
2022/05/09 13:45:19;;;;;;;;;2.00;2.00;12.30;99.90;;;;;;5045770;28;11498;-64
2022/05/09 13:48:05;;;;;;;;;1.00;1.00;12.30;99.90;;;;;;5053747;28;11426;-65
2022/05/09 13:50:45;;;;;;;;;0.75;0.75;12.30;99.90;;;;;;5044835;28;11498;-71
2022/05/09 13:53:24;;;;;;;;;2.00;2.00;12.30;99.90;;;;;;5033452;28;11583;-71